sensor_id;sensor_type;location;lat;lon;timestamp;P1;durP1;ratioP1;P2;durP2;ratioP2
66542;SDS011;53395;37.360;-122.046;2023-02-26T00:01:53;0.77;;;0.30;;
66542;SDS011;53395;37.360;-122.046;2023-02-26T00:04:22;1.20;;;0.45;;
66542;SDS011;53395;37.360;-122.046;2023-02-26T00:06:48;1.05;;;0.45;;
66542;SDS011;53395;37.360;-122.046;2023-02-26T00:09:17;0.95;;;0.30;;
66542;SDS011;53395;37.360;-122.046;2023-02-26T00:11:43;1.48;;;0.50;;
66542;SDS011;53395;37.360;-122.046;2023-02-26T00:14:10;1.08;;;0.40;;
66542;SDS011;53395;37.360;-122.046;2023-02-26T00:16:37;1.25;;;0.47;;
66542;SDS011;53395;37.360;-122.046;2023-02-26T00:19:05;2.67;;;0.63;;
66542;SDS011;53395;37.360;-122.046;2023-02-26T00:21:32;0.80;;;0.30;;
66542;SDS011;53395;37.360;-122.046;2023-02-26T00:23:58;0.70;;;0.40;;
66542;SDS011;53395;37.360;-122.046;2023-02-26T00:26:25;1.25;;;0.30;;
66542;SDS011;53395;37.360;-122.046;2023-02-26T00:28:51;1.80;;;0.55;;
66542;SDS011;53395;37.360;-122.046;2023-02-26T00:31:17;1.35;;;0.50;;
66542;SDS011;53395;37.360;-122.046;2023-02-26T00:33:45;0.80;;;0.40;;
66542;SDS011;53395;37.360;-122.046;2023-02-26T00:38:37;1.52;;;0.40;;
66542;SDS011;53395;37.360;-122.046;2023-02-26T00:41:04;0.95;;;0.35;;
66542;SDS011;53395;37.360;-122.046;2023-02-26T00:43:30;0.85;;;0.40;;
66542;SDS011;53395;37.360;-122.046;2023-02-26T00:46:03;3.50;;;0.60;;
66542;SDS011;53395;37.360;-122.046;2023-02-26T00:54:22;2.55;;;0.50;;
66542;SDS011;53395;37.360;-122.046;2023-02-26T00:56:48;2.67;;;0.47;;
66542;SDS011;53395;37.360;-122.046;2023-02-26T01:04:06;2.63;;;0.52;;
66542;SDS011;53395;37.360;-122.046;2023-02-26T01:06:33;1.80;;;0.50;;
66542;SDS011;53395;37.360;-122.046;2023-02-26T01:11:40;3.30;;;0.70;;
66542;SDS011;53395;37.360;-122.046;2023-02-26T01:14:06;1.98;;;0.60;;
66542;SDS011;53395;37.360;-122.046;2023-02-26T01:16:35;1.30;;;0.43;;
66542;SDS011;53395;37.360;-122.046;2023-02-26T01:19:23;1.52;;;0.63;;
66542;SDS011;53395;37.360;-122.046;2023-02-26T01:21:55;1.98;;;0.60;;
66542;SDS011;53395;37.360;-122.046;2023-02-26T01:24:24;1.60;;;0.50;;
66542;SDS011;53395;37.360;-122.046;2023-02-26T01:26:53;2.13;;;0.47;;
66542;SDS011;53395;37.360;-122.046;2023-02-26T01:29:19;1.88;;;0.40;;
66542;SDS011;53395;37.360;-122.046;2023-02-26T01:31:48;2.95;;;0.63;;
66542;SDS011;53395;37.360;-122.046;2023-02-26T01:34:22;1.10;;;0.30;;
66542;SDS011;53395;37.360;-122.046;2023-02-26T01:39:43;3.63;;;0.68;;
66542;SDS011;53395;37.360;-122.046;2023-02-26T01:44:54;4.45;;;0.40;;
66542;SDS011;53395;37.360;-122.046;2023-02-26T01:47:22;1.17;;;0.35;;
66542;SDS011;53395;37.360;-122.046;2023-02-26T01:49:52;2.25;;;0.73;;
66542;SDS011;53395;37.360;-122.046;2023-02-26T01:54:56;1.30;;;0.40;;
66542;SDS011;53395;37.360;-122.046;2023-02-26T01:57:22;1.75;;;0.40;;
66542;SDS011;53395;37.360;-122.046;2023-02-26T01:59:49;1.30;;;0.38;;
66542;SDS011;53395;37.360;-122.046;2023-02-26T02:02:16;1.88;;;1.55;;
66542;SDS011;53395;37.360;-122.046;2023-02-26T02:04:43;3.17;;;0.60;;
66542;SDS011;53395;37.360;-122.046;2023-02-26T02:07:11;1.92;;;0.50;;
66542;SDS011;53395;37.360;-122.046;2023-02-26T02:09:37;1.52;;;0.50;;
66542;SDS011;53395;37.360;-122.046;2023-02-26T02:12:06;2.60;;;0.40;;
66542;SDS011;53395;37.360;-122.046;2023-02-26T02:17:17;1.73;;;0.50;;
66542;SDS011;53395;37.360;-122.046;2023-02-26T02:33:11;2.35;;;0.55;;
66542;SDS011;53395;37.360;-122.046;2023-02-26T02:36:14;2.25;;;0.55;;
66542;SDS011;53395;37.360;-122.046;2023-02-26T02:41:31;1.85;;;0.60;;
66542;SDS011;53395;37.360;-122.046;2023-02-26T02:44:02;1.75;;;0.55;;
66542;SDS011;53395;37.360;-122.046;2023-02-26T02:46:32;1.73;;;0.70;;
66542;SDS011;53395;37.360;-122.046;2023-02-26T02:49:01;2.22;;;0.70;;
66542;SDS011;53395;37.360;-122.046;2023-02-26T02:51:48;1.98;;;0.85;;
66542;SDS011;53395;37.360;-122.046;2023-02-26T02:54:23;1.88;;;0.70;;
66542;SDS011;53395;37.360;-122.046;2023-02-26T02:59:18;3.60;;;1.20;;
66542;SDS011;53395;37.360;-122.046;2023-02-26T03:01:47;1.63;;;0.65;;
66542;SDS011;53395;37.360;-122.046;2023-02-26T03:04:14;1.90;;;0.70;;
66542;SDS011;53395;37.360;-122.046;2023-02-26T03:06:41;2.00;;;0.73;;
66542;SDS011;53395;37.360;-122.046;2023-02-26T03:09:08;1.77;;;0.50;;
66542;SDS011;53395;37.360;-122.046;2023-02-26T03:23:52;2.47;;;1.10;;
66542;SDS011;53395;37.360;-122.046;2023-02-26T03:26:23;1.95;;;0.90;;
66542;SDS011;53395;37.360;-122.046;2023-02-26T03:29:04;3.70;;;1.10;;
66542;SDS011;53395;37.360;-122.046;2023-02-26T03:31:42;2.10;;;0.80;;
66542;SDS011;53395;37.360;-122.046;2023-02-26T03:34:12;3.03;;;1.00;;
66542;SDS011;53395;37.360;-122.046;2023-02-26T03:36:44;5.32;;;1.40;;
66542;SDS011;53395;37.360;-122.046;2023-02-26T03:39:53;2.63;;;0.90;;
66542;SDS011;53395;37.360;-122.046;2023-02-26T03:44:27;3.95;;;1.20;;
66542;SDS011;53395;37.360;-122.046;2023-02-26T03:46:55;4.18;;;1.15;;
66542;SDS011;53395;37.360;-122.046;2023-02-26T03:49:25;3.03;;;1.30;;
66542;SDS011;53395;37.360;-122.046;2023-02-26T03:51:51;3.40;;;1.00;;
66542;SDS011;53395;37.360;-122.046;2023-02-26T03:54:22;2.78;;;0.90;;
66542;SDS011;53395;37.360;-122.046;2023-02-26T03:56:49;3.30;;;1.20;;
66542;SDS011;53395;37.360;-122.046;2023-02-26T03:59:16;2.35;;;1.13;;
66542;SDS011;53395;37.360;-122.046;2023-02-26T04:02:02;2.53;;;1.20;;
66542;SDS011;53395;37.360;-122.046;2023-02-26T04:06:55;3.80;;;1.20;;
66542;SDS011;53395;37.360;-122.046;2023-02-26T04:09:21;2.63;;;1.00;;
66542;SDS011;53395;37.360;-122.046;2023-02-26T04:11:47;5.82;;;1.27;;
66542;SDS011;53395;37.360;-122.046;2023-02-26T04:16:39;5.38;;;2.22;;
66542;SDS011;53395;37.360;-122.046;2023-02-26T04:19:05;2.97;;;1.20;;
66542;SDS011;53395;37.360;-122.046;2023-02-26T04:21:31;3.85;;;1.48;;
66542;SDS011;53395;37.360;-122.046;2023-02-26T04:23:57;5.07;;;1.65;;
66542;SDS011;53395;37.360;-122.046;2023-02-26T04:26:23;8.70;;;1.30;;
66542;SDS011;53395;37.360;-122.046;2023-02-26T04:28:49;2.60;;;1.25;;
66542;SDS011;53395;37.360;-122.046;2023-02-26T04:31:15;4.60;;;1.10;;
66542;SDS011;53395;37.360;-122.046;2023-02-26T04:33:40;2.30;;;0.80;;
66542;SDS011;53395;37.360;-122.046;2023-02-26T04:36:06;2.00;;;0.80;;
66542;SDS011;53395;37.360;-122.046;2023-02-26T04:38:33;2.58;;;0.80;;
66542;SDS011;53395;37.360;-122.046;2023-02-26T04:40:59;2.47;;;0.85;;
66542;SDS011;53395;37.360;-122.046;2023-02-26T04:43:25;1.38;;;0.50;;
66542;SDS011;53395;37.360;-122.046;2023-02-26T04:45:50;2.25;;;0.40;;
66542;SDS011;53395;37.360;-122.046;2023-02-26T04:48:16;1.30;;;0.50;;
66542;SDS011;53395;37.360;-122.046;2023-02-26T04:50:42;1.35;;;0.40;;
66542;SDS011;53395;37.360;-122.046;2023-02-26T04:53:09;0.98;;;0.47;;
66542;SDS011;53395;37.360;-122.046;2023-02-26T04:55:35;1.83;;;0.50;;
66542;SDS011;53395;37.360;-122.046;2023-02-26T04:58:01;1.50;;;0.47;;
66542;SDS011;53395;37.360;-122.046;2023-02-26T05:00:27;0.77;;;0.40;;
66542;SDS011;53395;37.360;-122.046;2023-02-26T05:02:53;0.68;;;0.38;;
66542;SDS011;53395;37.360;-122.046;2023-02-26T05:05:18;0.90;;;0.30;;
66542;SDS011;53395;37.360;-122.046;2023-02-26T05:07:44;1.75;;;0.50;;
66542;SDS011;53395;37.360;-122.046;2023-02-26T05:10:10;3.10;;;0.70;;
66542;SDS011;53395;37.360;-122.046;2023-02-26T05:12:36;5.50;;;0.77;;
66542;SDS011;53395;37.360;-122.046;2023-02-26T05:15:02;2.00;;;0.60;;
66542;SDS011;53395;37.360;-122.046;2023-02-26T05:17:28;2.40;;;0.95;;
66542;SDS011;53395;37.360;-122.046;2023-02-26T05:19:54;2.97;;;1.30;;
66542;SDS011;53395;37.360;-122.046;2023-02-26T05:22:20;2.30;;;0.60;;
66542;SDS011;53395;37.360;-122.046;2023-02-26T05:24:46;3.63;;;0.77;;
66542;SDS011;53395;37.360;-122.046;2023-02-26T05:27:12;2.25;;;0.68;;
66542;SDS011;53395;37.360;-122.046;2023-02-26T05:29:38;3.40;;;0.70;;
66542;SDS011;53395;37.360;-122.046;2023-02-26T05:32:06;3.92;;;0.60;;
66542;SDS011;53395;37.360;-122.046;2023-02-26T05:34:32;1.27;;;0.52;;
66542;SDS011;53395;37.360;-122.046;2023-02-26T05:36:58;2.70;;;0.50;;
66542;SDS011;53395;37.360;-122.046;2023-02-26T05:39:24;1.38;;;0.45;;
66542;SDS011;53395;37.360;-122.046;2023-02-26T05:41:49;1.52;;;0.50;;
66542;SDS011;53395;37.360;-122.046;2023-02-26T05:44:17;1.77;;;0.60;;
66542;SDS011;53395;37.360;-122.046;2023-02-26T05:46:43;1.20;;;0.60;;
66542;SDS011;53395;37.360;-122.046;2023-02-26T05:49:09;1.83;;;0.60;;
66542;SDS011;53395;37.360;-122.046;2023-02-26T05:51:35;7.03;;;0.93;;
66542;SDS011;53395;37.360;-122.046;2023-02-26T05:54:00;1.40;;;0.47;;
66542;SDS011;53395;37.360;-122.046;2023-02-26T05:56:26;2.35;;;0.68;;
66542;SDS011;53395;37.360;-122.046;2023-02-26T05:58:52;1.90;;;0.60;;
66542;SDS011;53395;37.360;-122.046;2023-02-26T06:01:18;2.13;;;0.70;;
66542;SDS011;53395;37.360;-122.046;2023-02-26T06:03:44;2.15;;;0.80;;
66542;SDS011;53395;37.360;-122.046;2023-02-26T06:06:11;3.17;;;0.85;;
66542;SDS011;53395;37.360;-122.046;2023-02-26T06:08:37;2.03;;;0.70;;
66542;SDS011;53395;37.360;-122.046;2023-02-26T06:11:03;9.60;;;2.15;;
66542;SDS011;53395;37.360;-122.046;2023-02-26T06:13:29;2.45;;;0.60;;
66542;SDS011;53395;37.360;-122.046;2023-02-26T06:15:55;1.75;;;0.70;;
66542;SDS011;53395;37.360;-122.046;2023-02-26T06:18:21;3.50;;;0.70;;
66542;SDS011;53395;37.360;-122.046;2023-02-26T06:20:47;1.83;;;0.75;;
66542;SDS011;53395;37.360;-122.046;2023-02-26T06:23:13;3.67;;;0.60;;
66542;SDS011;53395;37.360;-122.046;2023-02-26T06:25:40;1.58;;;0.45;;
66542;SDS011;53395;37.360;-122.046;2023-02-26T06:28:06;2.38;;;0.57;;
66542;SDS011;53395;37.360;-122.046;2023-02-26T06:30:32;2.97;;;0.65;;
66542;SDS011;53395;37.360;-122.046;2023-02-26T06:32:57;2.28;;;0.52;;
66542;SDS011;53395;37.360;-122.046;2023-02-26T06:35:23;2.70;;;0.80;;
66542;SDS011;53395;37.360;-122.046;2023-02-26T06:37:49;2.13;;;0.75;;
66542;SDS011;53395;37.360;-122.046;2023-02-26T06:40:15;2.53;;;0.50;;
66542;SDS011;53395;37.360;-122.046;2023-02-26T06:42:41;3.95;;;0.70;;
66542;SDS011;53395;37.360;-122.046;2023-02-26T06:45:07;2.38;;;0.75;;
66542;SDS011;53395;37.360;-122.046;2023-02-26T06:47:33;2.28;;;0.70;;
66542;SDS011;53395;37.360;-122.046;2023-02-26T06:49:59;3.30;;;0.90;;
66542;SDS011;53395;37.360;-122.046;2023-02-26T06:52:25;3.80;;;1.20;;
66542;SDS011;53395;37.360;-122.046;2023-02-26T06:54:51;4.68;;;1.38;;
66542;SDS011;53395;37.360;-122.046;2023-02-26T06:57:16;6.90;;;1.45;;
66542;SDS011;53395;37.360;-122.046;2023-02-26T06:59:42;4.78;;;1.45;;
66542;SDS011;53395;37.360;-122.046;2023-02-26T07:02:12;3.13;;;0.90;;
66542;SDS011;53395;37.360;-122.046;2023-02-26T07:04:40;3.17;;;0.88;;
66542;SDS011;53395;37.360;-122.046;2023-02-26T07:07:05;1.35;;;0.60;;
66542;SDS011;53395;37.360;-122.046;2023-02-26T07:09:31;2.67;;;0.60;;
66542;SDS011;53395;37.360;-122.046;2023-02-26T07:11:57;2.10;;;0.65;;
66542;SDS011;53395;37.360;-122.046;2023-02-26T07:14:23;1.88;;;0.50;;
66542;SDS011;53395;37.360;-122.046;2023-02-26T07:16:49;3.20;;;0.57;;
66542;SDS011;53395;37.360;-122.046;2023-02-26T07:19:15;2.45;;;0.60;;
66542;SDS011;53395;37.360;-122.046;2023-02-26T07:21:41;1.05;;;0.50;;
66542;SDS011;53395;37.360;-122.046;2023-02-26T07:24:07;3.20;;;0.93;;
66542;SDS011;53395;37.360;-122.046;2023-02-26T07:26:33;1.40;;;0.50;;
66542;SDS011;53395;37.360;-122.046;2023-02-26T07:28:59;2.00;;;0.50;;
66542;SDS011;53395;37.360;-122.046;2023-02-26T07:31:24;2.00;;;0.60;;
66542;SDS011;53395;37.360;-122.046;2023-02-26T07:33:50;1.98;;;0.60;;
66542;SDS011;53395;37.360;-122.046;2023-02-26T07:36:16;3.13;;;0.60;;
66542;SDS011;53395;37.360;-122.046;2023-02-26T07:38:42;1.48;;;0.60;;
66542;SDS011;53395;37.360;-122.046;2023-02-26T07:41:08;2.15;;;0.90;;
66542;SDS011;53395;37.360;-122.046;2023-02-26T07:43:34;1.90;;;0.70;;
66542;SDS011;53395;37.360;-122.046;2023-02-26T07:45:59;1.92;;;0.60;;
66542;SDS011;53395;37.360;-122.046;2023-02-26T07:48:25;1.88;;;0.70;;
66542;SDS011;53395;37.360;-122.046;2023-02-26T07:50:51;2.67;;;0.68;;
66542;SDS011;53395;37.360;-122.046;2023-02-26T07:53:18;2.00;;;0.70;;
66542;SDS011;53395;37.360;-122.046;2023-02-26T07:55:44;1.85;;;0.70;;
66542;SDS011;53395;37.360;-122.046;2023-02-26T07:58:10;2.03;;;0.80;;
66542;SDS011;53395;37.360;-122.046;2023-02-26T08:00:35;2.25;;;0.90;;
66542;SDS011;53395;37.360;-122.046;2023-02-26T08:03:01;5.32;;;1.00;;
66542;SDS011;53395;37.360;-122.046;2023-02-26T08:05:27;1.83;;;0.80;;
66542;SDS011;53395;37.360;-122.046;2023-02-26T08:07:53;3.15;;;1.00;;
66542;SDS011;53395;37.360;-122.046;2023-02-26T08:10:19;2.15;;;0.70;;
66542;SDS011;53395;37.360;-122.046;2023-02-26T08:12:45;2.13;;;0.80;;
66542;SDS011;53395;37.360;-122.046;2023-02-26T08:15:11;1.88;;;0.85;;
66542;SDS011;53395;37.360;-122.046;2023-02-26T08:17:40;2.05;;;0.80;;
66542;SDS011;53395;37.360;-122.046;2023-02-26T08:20:06;2.65;;;0.90;;
66542;SDS011;53395;37.360;-122.046;2023-02-26T08:22:32;3.47;;;0.80;;
66542;SDS011;53395;37.360;-122.046;2023-02-26T08:24:58;2.65;;;1.00;;
66542;SDS011;53395;37.360;-122.046;2023-02-26T08:27:24;2.45;;;0.90;;
66542;SDS011;53395;37.360;-122.046;2023-02-26T08:29:50;1.80;;;0.80;;
66542;SDS011;53395;37.360;-122.046;2023-02-26T08:32:16;3.30;;;0.90;;
66542;SDS011;53395;37.360;-122.046;2023-02-26T08:34:44;1.42;;;0.50;;
66542;SDS011;53395;37.360;-122.046;2023-02-26T08:37:10;2.70;;;0.90;;
66542;SDS011;53395;37.360;-122.046;2023-02-26T08:39:36;2.15;;;0.65;;
66542;SDS011;53395;37.360;-122.046;2023-02-26T08:42:06;2.63;;;0.65;;
66542;SDS011;53395;37.360;-122.046;2023-02-26T08:44:32;4.15;;;0.70;;
66542;SDS011;53395;37.360;-122.046;2023-02-26T08:46:58;1.92;;;0.70;;
66542;SDS011;53395;37.360;-122.046;2023-02-26T08:49:24;1.50;;;0.57;;
66542;SDS011;53395;37.360;-122.046;2023-02-26T08:51:49;2.47;;;0.60;;
66542;SDS011;53395;37.360;-122.046;2023-02-26T08:54:15;1.30;;;0.50;;
66542;SDS011;53395;37.360;-122.046;2023-02-26T08:56:41;2.33;;;0.75;;
66542;SDS011;53395;37.360;-122.046;2023-02-26T08:59:07;1.63;;;0.68;;
66542;SDS011;53395;37.360;-122.046;2023-02-26T09:01:36;1.98;;;0.57;;
66542;SDS011;53395;37.360;-122.046;2023-02-26T09:04:01;2.65;;;0.70;;
66542;SDS011;53395;37.360;-122.046;2023-02-26T09:06:27;1.35;;;0.60;;
66542;SDS011;53395;37.360;-122.046;2023-02-26T09:08:53;1.95;;;0.70;;
66542;SDS011;53395;37.360;-122.046;2023-02-26T09:11:19;1.20;;;0.40;;
66542;SDS011;53395;37.360;-122.046;2023-02-26T09:13:45;1.70;;;0.50;;
66542;SDS011;53395;37.360;-122.046;2023-02-26T09:16:10;1.20;;;0.50;;
66542;SDS011;53395;37.360;-122.046;2023-02-26T09:18:36;1.10;;;0.50;;
66542;SDS011;53395;37.360;-122.046;2023-02-26T09:21:02;3.88;;;0.60;;
66542;SDS011;53395;37.360;-122.046;2023-02-26T09:23:28;1.20;;;0.50;;
66542;SDS011;53395;37.360;-122.046;2023-02-26T09:25:55;1.67;;;0.60;;
66542;SDS011;53395;37.360;-122.046;2023-02-26T09:30:46;1.35;;;0.60;;
66542;SDS011;53395;37.360;-122.046;2023-02-26T09:33:12;3.65;;;0.60;;
66542;SDS011;53395;37.360;-122.046;2023-02-26T09:35:38;2.70;;;0.70;;
66542;SDS011;53395;37.360;-122.046;2023-02-26T09:38:06;2.05;;;0.65;;
66542;SDS011;53395;37.360;-122.046;2023-02-26T09:40:40;3.17;;;0.90;;
66542;SDS011;53395;37.360;-122.046;2023-02-26T09:43:13;1.70;;;0.70;;
66542;SDS011;53395;37.360;-122.046;2023-02-26T09:45:42;1.90;;;0.70;;
66542;SDS011;53395;37.360;-122.046;2023-02-26T09:48:10;1.35;;;0.47;;
66542;SDS011;53395;37.360;-122.046;2023-02-26T09:50:53;1.40;;;0.63;;
66542;SDS011;53395;37.360;-122.046;2023-02-26T09:53:21;1.92;;;0.70;;
66542;SDS011;53395;37.360;-122.046;2023-02-26T09:55:49;1.52;;;0.60;;
66542;SDS011;53395;37.360;-122.046;2023-02-26T10:01:01;1.88;;;0.68;;
66542;SDS011;53395;37.360;-122.046;2023-02-26T10:09:04;4.65;;;0.65;;
66542;SDS011;53395;37.360;-122.046;2023-02-26T10:11:46;2.53;;;1.00;;
66542;SDS011;53395;37.360;-122.046;2023-02-26T10:14:18;1.38;;;0.60;;
66542;SDS011;53395;37.360;-122.046;2023-02-26T10:16:46;2.03;;;0.82;;
66542;SDS011;53395;37.360;-122.046;2023-02-26T10:19:14;1.45;;;0.60;;
66542;SDS011;53395;37.360;-122.046;2023-02-26T10:21:44;1.48;;;0.63;;
66542;SDS011;53395;37.360;-122.046;2023-02-26T10:24:13;1.63;;;0.50;;
66542;SDS011;53395;37.360;-122.046;2023-02-26T10:26:42;1.63;;;0.50;;
66542;SDS011;53395;37.360;-122.046;2023-02-26T10:29:13;1.15;;;0.52;;
66542;SDS011;53395;37.360;-122.046;2023-02-26T10:36:57;1.73;;;0.57;;
66542;SDS011;53395;37.360;-122.046;2023-02-26T10:42:12;1.98;;;0.90;;
66542;SDS011;53395;37.360;-122.046;2023-02-26T10:49:57;2.15;;;0.52;;
66542;SDS011;53395;37.360;-122.046;2023-02-26T10:52:24;1.48;;;0.57;;
66542;SDS011;53395;37.360;-122.046;2023-02-26T10:57:34;2.30;;;0.50;;
66542;SDS011;53395;37.360;-122.046;2023-02-26T11:00:02;1.50;;;0.50;;
66542;SDS011;53395;37.360;-122.046;2023-02-26T11:02:34;1.15;;;0.45;;
66542;SDS011;53395;37.360;-122.046;2023-02-26T11:05:02;2.85;;;0.40;;
66542;SDS011;53395;37.360;-122.046;2023-02-26T11:07:28;0.75;;;0.30;;
66542;SDS011;53395;37.360;-122.046;2023-02-26T11:09:55;2.33;;;0.50;;
66542;SDS011;53395;37.360;-122.046;2023-02-26T11:12:21;0.57;;;0.30;;
66542;SDS011;53395;37.360;-122.046;2023-02-26T11:14:48;1.85;;;0.40;;
66542;SDS011;53395;37.360;-122.046;2023-02-26T11:17:27;1.10;;;0.30;;
66542;SDS011;53395;37.360;-122.046;2023-02-26T11:20:03;1.33;;;0.30;;
66542;SDS011;53395;37.360;-122.046;2023-02-26T11:22:39;1.38;;;0.40;;
66542;SDS011;53395;37.360;-122.046;2023-02-26T11:25:12;1.02;;;0.40;;
66542;SDS011;53395;37.360;-122.046;2023-02-26T11:27:38;2.03;;;0.60;;
66542;SDS011;53395;37.360;-122.046;2023-02-26T11:30:14;1.15;;;0.40;;
66542;SDS011;53395;37.360;-122.046;2023-02-26T11:32:42;1.58;;;0.55;;
66542;SDS011;53395;37.360;-122.046;2023-02-26T11:35:13;1.15;;;0.40;;
66542;SDS011;53395;37.360;-122.046;2023-02-26T11:37:40;2.15;;;0.40;;
66542;SDS011;53395;37.360;-122.046;2023-02-26T11:42:37;0.90;;;0.40;;
66542;SDS011;53395;37.360;-122.046;2023-02-26T11:45:04;1.92;;;0.60;;
66542;SDS011;53395;37.360;-122.046;2023-02-26T11:47:30;1.67;;;0.55;;
66542;SDS011;53395;37.360;-122.046;2023-02-26T11:50:00;1.92;;;0.50;;
66542;SDS011;53395;37.360;-122.046;2023-02-26T11:52:39;1.98;;;0.50;;
66542;SDS011;53395;37.360;-122.046;2023-02-26T11:55:16;2.00;;;0.60;;
66542;SDS011;53395;37.360;-122.046;2023-02-26T11:57:42;1.35;;;0.40;;
66542;SDS011;53395;37.360;-122.046;2023-02-26T12:00:18;1.10;;;0.50;;
66542;SDS011;53395;37.360;-122.046;2023-02-26T12:02:44;1.92;;;0.50;;
66542;SDS011;53395;37.360;-122.046;2023-02-26T12:05:11;2.05;;;0.50;;
66542;SDS011;53395;37.360;-122.046;2023-02-26T12:07:38;2.17;;;0.50;;
66542;SDS011;53395;37.360;-122.046;2023-02-26T12:10:25;1.08;;;0.43;;
66542;SDS011;53395;37.360;-122.046;2023-02-26T12:15:34;1.85;;;0.50;;
66542;SDS011;53395;37.360;-122.046;2023-02-26T12:26:23;1.75;;;0.50;;
66542;SDS011;53395;37.360;-122.046;2023-02-26T12:34:14;0.77;;;0.40;;
66542;SDS011;53395;37.360;-122.046;2023-02-26T12:39:28;1.15;;;0.50;;
66542;SDS011;53395;37.360;-122.046;2023-02-26T12:47:24;1.95;;;0.57;;
66542;SDS011;53395;37.360;-122.046;2023-02-26T12:52:41;2.08;;;0.52;;
66542;SDS011;53395;37.360;-122.046;2023-02-26T12:57:43;1.13;;;0.40;;
66542;SDS011;53395;37.360;-122.046;2023-02-26T13:02:58;1.20;;;0.40;;
66542;SDS011;53395;37.360;-122.046;2023-02-26T13:05:33;1.80;;;0.30;;
66542;SDS011;53395;37.360;-122.046;2023-02-26T13:08:38;1.30;;;0.47;;
66542;SDS011;53395;37.360;-122.046;2023-02-26T13:16:31;2.28;;;0.50;;
66542;SDS011;53395;37.360;-122.046;2023-02-26T13:21:57;2.95;;;0.63;;
66542;SDS011;53395;37.360;-122.046;2023-02-26T13:24:29;1.92;;;0.50;;
66542;SDS011;53395;37.360;-122.046;2023-02-26T13:26:58;0.75;;;0.30;;
66542;SDS011;53395;37.360;-122.046;2023-02-26T13:29:33;2.70;;;0.60;;
66542;SDS011;53395;37.360;-122.046;2023-02-26T13:32:01;0.93;;;0.32;;
66542;SDS011;53395;37.360;-122.046;2023-02-26T13:37:10;1.23;;;0.50;;
66542;SDS011;53395;37.360;-122.046;2023-02-26T13:50:01;1.10;;;0.38;;
66542;SDS011;53395;37.360;-122.046;2023-02-26T13:52:30;1.45;;;0.35;;
66542;SDS011;53395;37.360;-122.046;2023-02-26T13:54:56;1.05;;;0.30;;
66542;SDS011;53395;37.360;-122.046;2023-02-26T13:57:46;1.92;;;0.45;;
66542;SDS011;53395;37.360;-122.046;2023-02-26T14:00:32;0.93;;;0.30;;
66542;SDS011;53395;37.360;-122.046;2023-02-26T14:03:44;1.80;;;0.63;;
66542;SDS011;53395;37.360;-122.046;2023-02-26T14:10:46;2.97;;;0.70;;
66542;SDS011;53395;37.360;-122.046;2023-02-26T14:13:37;1.73;;;0.60;;
66542;SDS011;53395;37.360;-122.046;2023-02-26T14:16:11;2.28;;;0.77;;
66542;SDS011;53395;37.360;-122.046;2023-02-26T14:26:47;3.67;;;0.80;;
66542;SDS011;53395;37.360;-122.046;2023-02-26T14:29:15;3.35;;;1.08;;
66542;SDS011;53395;37.360;-122.046;2023-02-26T14:39:46;4.85;;;1.25;;
66542;SDS011;53395;37.360;-122.046;2023-02-26T14:42:09;3.08;;;1.13;;
66542;SDS011;53395;37.360;-122.046;2023-02-26T14:44:41;2.13;;;1.00;;
66542;SDS011;53395;37.360;-122.046;2023-02-26T14:47:07;2.17;;;0.88;;
66542;SDS011;53395;37.360;-122.046;2023-02-26T14:49:34;1.88;;;0.70;;
66542;SDS011;53395;37.360;-122.046;2023-02-26T14:59:55;2.55;;;0.65;;
66542;SDS011;53395;37.360;-122.046;2023-02-26T15:05:25;2.38;;;0.80;;
66542;SDS011;53395;37.360;-122.046;2023-02-26T15:18:01;3.22;;;0.85;;
66542;SDS011;53395;37.360;-122.046;2023-02-26T15:20:32;2.70;;;0.50;;
66542;SDS011;53395;37.360;-122.046;2023-02-26T15:25:37;2.05;;;0.70;;
66542;SDS011;53395;37.360;-122.046;2023-02-26T15:28:05;3.17;;;0.70;;
66542;SDS011;53395;37.360;-122.046;2023-02-26T15:30:31;1.50;;;0.50;;
66542;SDS011;53395;37.360;-122.046;2023-02-26T15:32:59;2.03;;;0.73;;
66542;SDS011;53395;37.360;-122.046;2023-02-26T15:35:28;2.35;;;0.80;;
66542;SDS011;53395;37.360;-122.046;2023-02-26T15:37:55;3.80;;;0.70;;
66542;SDS011;53395;37.360;-122.046;2023-02-26T15:40:22;1.83;;;0.68;;
66542;SDS011;53395;37.360;-122.046;2023-02-26T15:42:49;2.55;;;0.63;;
66542;SDS011;53395;37.360;-122.046;2023-02-26T15:47:48;3.15;;;0.65;;
66542;SDS011;53395;37.360;-122.046;2023-02-26T15:50:16;2.03;;;0.60;;
66542;SDS011;53395;37.360;-122.046;2023-02-26T15:52:42;1.35;;;0.50;;
66542;SDS011;53395;37.360;-122.046;2023-02-26T15:55:12;1.95;;;0.50;;
66542;SDS011;53395;37.360;-122.046;2023-02-26T15:57:39;1.95;;;0.63;;
66542;SDS011;53395;37.360;-122.046;2023-02-26T16:00:09;1.42;;;0.43;;
66542;SDS011;53395;37.360;-122.046;2023-02-26T16:02:35;1.98;;;0.65;;
66542;SDS011;53395;37.360;-122.046;2023-02-26T16:05:02;1.83;;;0.40;;
66542;SDS011;53395;37.360;-122.046;2023-02-26T16:07:28;2.72;;;0.55;;
66542;SDS011;53395;37.360;-122.046;2023-02-26T16:09:54;2.30;;;0.70;;
66542;SDS011;53395;37.360;-122.046;2023-02-26T16:12:21;2.10;;;0.40;;
66542;SDS011;53395;37.360;-122.046;2023-02-26T16:14:49;1.45;;;0.45;;
66542;SDS011;53395;37.360;-122.046;2023-02-26T16:17:22;3.03;;;0.40;;
66542;SDS011;53395;37.360;-122.046;2023-02-26T16:19:49;2.42;;;0.68;;
66542;SDS011;53395;37.360;-122.046;2023-02-26T16:24:45;1.02;;;0.30;;
66542;SDS011;53395;37.360;-122.046;2023-02-26T16:27:11;1.17;;;0.30;;
66542;SDS011;53395;37.360;-122.046;2023-02-26T16:29:42;0.45;;;0.20;;
66542;SDS011;53395;37.360;-122.046;2023-02-26T16:32:12;1.50;;;0.52;;
66542;SDS011;53395;37.360;-122.046;2023-02-26T16:34:51;1.15;;;0.35;;
66542;SDS011;53395;37.360;-122.046;2023-02-26T16:39:56;0.77;;;0.30;;
66542;SDS011;53395;37.360;-122.046;2023-02-26T16:45:02;0.85;;;0.30;;
66542;SDS011;53395;37.360;-122.046;2023-02-26T16:47:39;0.90;;;0.40;;
66542;SDS011;53395;37.360;-122.046;2023-02-26T16:50:12;4.97;;;0.38;;
66542;SDS011;53395;37.360;-122.046;2023-02-26T16:52:40;0.45;;;0.20;;
66542;SDS011;53395;37.360;-122.046;2023-02-26T16:55:05;0.85;;;0.30;;
66542;SDS011;53395;37.360;-122.046;2023-02-26T16:57:38;0.60;;;0.20;;
66542;SDS011;53395;37.360;-122.046;2023-02-26T17:00:17;14.23;;;0.50;;
66542;SDS011;53395;37.360;-122.046;2023-02-26T17:02:54;0.55;;;0.28;;
66542;SDS011;53395;37.360;-122.046;2023-02-26T17:05:24;0.57;;;0.20;;
66542;SDS011;53395;37.360;-122.046;2023-02-26T17:07:54;0.55;;;0.30;;
66542;SDS011;53395;37.360;-122.046;2023-02-26T17:10:31;1.33;;;0.38;;
66542;SDS011;53395;37.360;-122.046;2023-02-26T17:13:01;0.45;;;0.25;;
66542;SDS011;53395;37.360;-122.046;2023-02-26T17:15:30;1.23;;;0.50;;
66542;SDS011;53395;37.360;-122.046;2023-02-26T17:17:56;0.52;;;0.30;;
66542;SDS011;53395;37.360;-122.046;2023-02-26T17:20:23;1.48;;;0.40;;
66542;SDS011;53395;37.360;-122.046;2023-02-26T17:22:49;1.10;;;0.38;;
66542;SDS011;53395;37.360;-122.046;2023-02-26T17:25:16;1.95;;;0.30;;
66542;SDS011;53395;37.360;-122.046;2023-02-26T17:27:43;0.90;;;0.40;;
66542;SDS011;53395;37.360;-122.046;2023-02-26T17:30:14;1.13;;;0.40;;
66542;SDS011;53395;37.360;-122.046;2023-02-26T17:32:43;0.73;;;0.28;;
66542;SDS011;53395;37.360;-122.046;2023-02-26T17:35:12;0.43;;;0.20;;
66542;SDS011;53395;37.360;-122.046;2023-02-26T17:37:39;1.00;;;0.40;;
66542;SDS011;53395;37.360;-122.046;2023-02-26T17:40:13;0.70;;;0.30;;